Time;durP1;ratioP1;P1;durP2;ratioP2;P2;SDS_P1;SDS_P2;PMS_P1;PMS_P2;Temp;Humidity;BMP_temperature;BMP_pressure;BME280_temperature;BME280_humidity;BME280_pressure;Samples;Min_cycle;Max_cycle;Signal;HPM_P1;HPM_P2
2022/12/25 00:01:41;;;;;;;;;;;18.30;49.20;;;;;;4952977;28;19911;-51
2022/12/25 00:04:07;;;;;;;;;;;18.30;49.20;;;;;;4956916;28;19967;-51
2022/12/25 00:06:32;;;;;;;;;;;18.20;49.30;;;;;;4955384;28;19946;-51
2022/12/25 00:08:58;;;;;;;;;;;18.20;49.30;;;;;;4966455;28;19936;-51
2022/12/25 00:11:23;;;;;;;;;;;18.20;49.40;;;;;;4959597;28;20005;-51
2022/12/25 00:13:49;;;;;;;;;;;18.10;49.30;;;;;;4952873;28;19918;-51
2022/12/25 00:16:18;;;;;;;;;;;18.10;49.40;;;;;;4953078;29;19914;-51
2022/12/25 00:18:44;;;;;;;;;;;18.10;49.50;;;;;;4953478;28;20352;-51
2022/12/25 00:21:10;;;;;;;;;;;18.00;49.40;;;;;;4954214;28;19945;-51
2022/12/25 00:23:35;;;;;;;;;;;18.00;49.60;;;;;;4952194;28;19945;-51
2022/12/25 00:26:04;;;;;;;;;;;18.00;49.60;;;;;;4953406;28;19918;-51
2022/12/25 00:28:30;;;;;;;;;;;17.90;49.60;;;;;;4948996;28;19914;-51
2022/12/25 00:30:55;;;;;;;;;;;17.90;49.60;;;;;;4934321;28;20458;-51
2022/12/25 00:33:20;;;;;;;;;;;17.90;49.70;;;;;;4939354;28;19918;-52
2022/12/25 00:35:55;;;;;;;;;;;17.90;49.70;;;;;;4960584;28;19926;-51
2022/12/25 00:38:21;;;;;;;;;;;17.80;49.80;;;;;;4963239;28;20021;-51
2022/12/25 00:40:46;;;;;;;;;;;17.80;49.80;;;;;;4967351;28;20001;-51
2022/12/25 00:43:11;;;;;;;;;;;17.70;49.80;;;;;;4952356;29;19950;-51
2022/12/25 00:45:37;;;;;;;;;;;17.70;49.80;;;;;;4953252;29;19910;-51
2022/12/25 00:48:02;;;;;;;;;;;17.70;49.80;;;;;;4953400;28;19965;-50
2022/12/25 00:50:28;;;;;;;;;;;17.70;49.80;;;;;;4952913;29;19960;-53
2022/12/25 00:52:53;;;;;;;;;;;17.60;50.00;;;;;;5010385;28;19917;-51
2022/12/25 00:55:19;;;;;;;;;;;17.60;50.00;;;;;;4969330;28;20436;-52
2022/12/25 00:57:44;;;;;;;;;;;17.60;50.10;;;;;;4972029;28;20088;-51
2022/12/25 01:00:10;;;;;;;;;;;17.50;49.80;;;;;;4956682;28;19910;-51
2022/12/25 01:02:35;;;;;;;;;;;17.60;50.00;;;;;;4953087;29;19915;-52
2022/12/25 01:05:01;;;;;;;;;;;17.50;49.90;;;;;;4952524;28;19914;-51
2022/12/25 01:07:26;;;;;;;;;;;17.50;49.90;;;;;;4951488;28;19925;-50
2022/12/25 01:12:37;;;;;;;;;;;17.50;49.90;;;;;;4951609;28;19959;-51
2022/12/25 01:15:03;;;;;;;;;;;17.40;49.90;;;;;;4952259;28;20373;-50
2022/12/25 01:17:29;;;;;;;;;;;17.40;50.00;;;;;;4952740;28;19949;-52
2022/12/25 01:19:54;;;;;;;;;;;17.30;49.90;;;;;;4952594;28;20361;-52
2022/12/25 01:22:19;;;;;;;;;;;17.30;50.00;;;;;;4948518;28;20294;-52
2022/12/25 01:24:45;;;;;;;;;;;17.30;50.10;;;;;;4949278;28;20271;-53
2022/12/25 01:27:10;;;;;;;;;;;17.30;50.10;;;;;;4955412;28;19918;-52
2022/12/25 01:29:36;;;;;;;;;;;17.30;50.10;;;;;;4952287;28;19914;-52
2022/12/25 01:32:02;;;;;;;;;;;17.20;50.10;;;;;;4952345;28;19910;-52
2022/12/25 01:34:27;;;;;;;;;;;17.20;50.20;;;;;;4952360;29;19914;-53
2022/12/25 01:36:52;;;;;;;;;;;17.20;50.40;;;;;;4950106;28;19915;-52
2022/12/25 01:39:18;;;;;;;;;;;17.20;50.30;;;;;;4955629;28;19918;-52
2022/12/25 01:41:43;;;;;;;;;;;17.10;50.20;;;;;;4947417;28;19921;-52
2022/12/25 01:44:15;;;;;;;;;;;17.10;50.20;;;;;;4951485;28;19921;-52
2022/12/25 01:46:40;;;;;;;;;;;17.10;50.20;;;;;;4951971;28;19953;-53
2022/12/25 01:49:07;;;;;;;;;;;17.10;50.30;;;;;;4952227;28;19942;-52
2022/12/25 01:51:52;;;;;;;;;;;17.00;50.30;;;;;;4934977;29;19910;-52
2022/12/25 01:54:22;;;;;;;;;;;17.00;50.30;;;;;;4951749;29;19919;-52
2022/12/25 01:56:47;;;;;;;;;;;17.00;50.30;;;;;;4951144;28;19911;-52
2022/12/25 01:59:13;;;;;;;;;;;17.00;50.30;;;;;;4951572;28;19968;-51
2022/12/25 02:01:38;;;;;;;;;;;16.90;50.40;;;;;;4948840;29;19915;-51
2022/12/25 02:04:05;;;;;;;;;;;16.90;50.40;;;;;;4951908;29;20350;-50
2022/12/25 02:06:30;;;;;;;;;;;16.90;50.30;;;;;;4931521;28;19945;-51
2022/12/25 02:08:56;;;;;;;;;;;16.90;50.40;;;;;;4927068;28;19914;-51
2022/12/25 02:14:05;;;;;;;;;;;17.00;50.20;;;;;;4926130;28;20057;-51
2022/12/25 02:16:31;;;;;;;;;;;17.10;49.90;;;;;;4926144;28;20017;-51
2022/12/25 02:19:02;;;;;;;;;;;17.20;49.80;;;;;;4926726;28;19915;-52
2022/12/25 02:21:41;;;;;;;;;;;17.40;49.40;;;;;;4929658;28;19991;-51
2022/12/25 02:24:14;;;;;;;;;;;17.50;49.10;;;;;;4928981;28;19923;-51
2022/12/25 02:26:50;;;;;;;;;;;17.70;48.60;;;;;;4924396;28;19919;-51
2022/12/25 02:29:34;;;;;;;;;;;18.10;48.00;;;;;;4928826;28;19923;-52
2022/12/25 02:31:59;;;;;;;;;;;18.50;47.20;;;;;;4917241;28;20286;-51
2022/12/25 02:34:34;;;;;;;;;;;19.00;46.30;;;;;;4931596;29;19923;-51
2022/12/25 02:37:04;;;;;;;;;;;19.40;45.20;;;;;;4931946;29;19922;-52
2022/12/25 03:06:41;;;;;;;;;;;20.30;43.60;;;;;;4939684;28;19964;-52
2022/12/25 03:07:07;;;;;;;;;;;20.50;43.10;;;;;;4934578;29;19976;-52
2022/12/25 03:12:18;;;;;;;;;;;20.50;43.30;;;;;;4935876;28;19917;-51
2022/12/25 03:17:29;;;;;;;;;;;20.70;42.80;;;;;;4928893;28;19941;-52
2022/12/25 03:28:07;;;;;;;;;;;21.40;41.50;;;;;;4930781;28;19973;-52
2022/12/25 03:33:21;;;;;;;;;;;21.40;41.60;;;;;;4931629;28;19933;-53
2022/12/25 03:36:04;;;;;;;;;;;21.20;41.70;;;;;;4928693;28;19919;-53
2022/12/25 04:36:07;;;;;;;;;;;20.70;42.80;;;;;;4934519;29;20018;-51
2022/12/25 04:36:43;;;;;;;;;;;21.60;41.10;;;;;;4946737;28;19945;-51
2022/12/25 04:39:08;;;;;;;;;;;21.50;41.10;;;;;;4946457;28;19914;-51
2022/12/25 04:41:34;;;;;;;;;;;21.50;41.10;;;;;;4970983;28;19914;-51
2022/12/25 04:43:59;;;;;;;;;;;21.50;41.10;;;;;;4947793;28;20554;-51
2022/12/25 04:46:24;;;;;;;;;;;21.50;41.10;;;;;;4949975;28;20359;-52
2022/12/25 04:48:50;;;;;;;;;;;21.50;41.00;;;;;;4951408;28;20282;-51
2022/12/25 04:51:16;;;;;;;;;;;21.60;40.80;;;;;;4958924;28;19914;-51
2022/12/25 04:53:42;;;;;;;;;;;21.60;41.10;;;;;;4953131;28;20005;-51
2022/12/25 04:56:07;;;;;;;;;;;21.60;40.90;;;;;;4952491;28;20350;-51
2022/12/25 04:58:33;;;;;;;;;;;21.50;40.80;;;;;;4952724;28;19914;-51
2022/12/25 05:01:02;;;;;;;;;;;21.50;40.80;;;;;;4953268;28;19911;-51
2022/12/25 05:03:27;;;;;;;;;;;21.60;40.70;;;;;;4952654;29;19917;-51
2022/12/25 05:05:53;;;;;;;;;;;21.50;40.90;;;;;;4952604;29;20009;-51
2022/12/25 05:08:18;;;;;;;;;;;21.40;41.00;;;;;;4953190;28;19910;-51
2022/12/25 05:10:44;;;;;;;;;;;21.40;41.20;;;;;;4971732;28;19910;-51
2022/12/25 05:13:09;;;;;;;;;;;21.40;41.00;;;;;;4958733;28;19937;-52
2022/12/25 05:15:37;;;;;;;;;;;21.40;41.00;;;;;;4933909;28;19923;-51
2022/12/25 05:18:03;;;;;;;;;;;21.40;41.10;;;;;;4933533;28;19911;-51
2022/12/25 05:20:28;;;;;;;;;;;21.50;41.20;;;;;;4943439;28;20420;-51
2022/12/25 05:22:54;;;;;;;;;;;21.50;41.10;;;;;;4945661;28;19915;-51
2022/12/25 05:25:19;;;;;;;;;;;21.60;41.00;;;;;;4946704;28;20255;-52
2022/12/25 05:27:45;;;;;;;;;;;21.50;40.80;;;;;;4953560;28;20297;-51
2022/12/25 05:30:10;;;;;;;;;;;21.50;40.80;;;;;;4950100;28;20408;-51
2022/12/25 05:32:36;;;;;;;;;;;21.60;40.80;;;;;;4948233;28;19922;-52
2022/12/25 05:35:01;;;;;;;;;;;21.60;40.80;;;;;;4946155;28;20076;-52
2022/12/25 05:37:27;;;;;;;;;;;21.60;40.90;;;;;;4945801;28;20000;-52
2022/12/25 05:39:52;;;;;;;;;;;21.50;40.90;;;;;;4953809;28;20375;-51
2022/12/25 05:42:18;;;;;;;;;;;21.50;40.90;;;;;;4949919;28;20339;-51
2022/12/25 05:44:43;;;;;;;;;;;21.50;40.90;;;;;;4951035;29;20255;-51
2022/12/25 05:47:08;;;;;;;;;;;21.40;41.00;;;;;;4952521;28;19911;-52
2022/12/25 05:49:34;;;;;;;;;;;21.40;41.00;;;;;;4948694;28;19957;-51
2022/12/25 05:51:59;;;;;;;;;;;21.30;41.20;;;;;;4981327;28;19924;-51
2022/12/25 05:54:25;;;;;;;;;;;21.50;41.10;;;;;;4949452;28;19929;-51
2022/12/25 05:56:50;;;;;;;;;;;21.40;41.10;;;;;;4950958;28;19929;-52
2022/12/25 05:59:15;;;;;;;;;;;21.50;41.00;;;;;;4948136;28;19966;-52
2022/12/25 06:01:41;;;;;;;;;;;21.50;41.10;;;;;;4946230;28;19919;-51
2022/12/25 06:04:06;;;;;;;;;;;21.60;40.80;;;;;;4949041;28;19915;-51
2022/12/25 06:06:32;;;;;;;;;;;21.70;40.70;;;;;;4945248;28;19919;-51
2022/12/25 06:08:57;;;;;;;;;;;21.70;40.50;;;;;;4948756;28;20306;-53
2022/12/25 06:11:23;;;;;;;;;;;21.70;40.70;;;;;;4945859;28;19915;-53
2022/12/25 06:13:49;;;;;;;;;;;21.70;40.50;;;;;;4948691;28;19914;-53
2022/12/25 06:16:15;;;;;;;;;;;21.70;40.60;;;;;;4946928;28;20017;-52
2022/12/25 06:18:41;;;;;;;;;;;21.70;40.60;;;;;;4945397;28;20036;-52
2022/12/25 06:21:07;;;;;;;;;;;21.80;40.40;;;;;;4944413;28;19927;-52
2022/12/25 06:23:33;;;;;;;;;;;21.70;40.40;;;;;;4966474;28;19914;-52
2022/12/25 06:25:59;;;;;;;;;;;21.80;40.30;;;;;;4945492;28;19957;-52
2022/12/25 06:28:24;;;;;;;;;;;21.70;40.50;;;;;;4948732;28;19961;-52
2022/12/25 06:30:50;;;;;;;;;;;21.60;40.50;;;;;;4945526;28;20327;-51
2022/12/25 06:33:15;;;;;;;;;;;21.50;40.80;;;;;;4944172;28;20263;-52
2022/12/25 06:35:41;;;;;;;;;;;21.30;41.00;;;;;;4945875;28;20375;-53
2022/12/25 06:38:06;;;;;;;;;;;21.30;41.10;;;;;;4947053;28;20294;-51
2022/12/25 06:40:33;;;;;;;;;;;21.30;41.00;;;;;;4947919;28;19915;-51
2022/12/25 06:42:58;;;;;;;;;;;21.60;40.80;;;;;;4946143;28;19918;-51
2022/12/25 06:45:23;;;;;;;;;;;21.60;40.60;;;;;;4945687;28;19922;-51
2022/12/25 06:47:49;;;;;;;;;;;21.70;40.50;;;;;;4947281;28;20013;-52
2022/12/25 06:50:14;;;;;;;;;;;21.70;40.60;;;;;;4949936;28;19918;-52
2022/12/25 06:52:40;;;;;;;;;;;21.70;40.40;;;;;;5021290;28;19920;-53
2022/12/25 06:55:05;;;;;;;;;;;21.70;40.30;;;;;;5030731;28;20001;-52
2022/12/25 06:57:31;;;;;;;;;;;21.70;40.40;;;;;;4951711;28;19910;-52
2022/12/25 06:59:56;;;;;;;;;;;21.70;40.40;;;;;;4950558;28;19911;-52
2022/12/25 07:02:22;;;;;;;;;;;21.80;40.30;;;;;;4955149;28;19919;-52
2022/12/25 07:04:47;;;;;;;;;;;21.90;40.10;;;;;;4950544;29;19960;-53
2022/12/25 07:07:13;;;;;;;;;;;21.90;40.00;;;;;;4951509;28;19918;-51
2022/12/25 07:09:38;;;;;;;;;;;21.80;40.10;;;;;;4950648;28;19925;-51
2022/12/25 07:12:22;;;;;;;;;;;21.70;40.40;;;;;;4950997;28;19911;-51
2022/12/25 07:14:48;;;;;;;;;;;21.70;40.30;;;;;;4950236;29;19929;-51
2022/12/25 07:17:17;;;;;;;;;;;21.60;41.20;;;;;;4951545;28;19943;-50
2022/12/25 07:19:42;;;;;;;;;;;21.60;40.60;;;;;;4955743;28;20401;-51
2022/12/25 07:22:08;;;;;;;;;;;21.50;40.60;;;;;;4948604;28;19918;-51
2022/12/25 07:24:33;;;;;;;;;;;21.50;40.90;;;;;;4946851;28;19919;-51
2022/12/25 07:26:58;;;;;;;;;;;21.50;40.70;;;;;;4946123;28;19933;-52
2022/12/25 07:29:24;;;;;;;;;;;21.50;40.80;;;;;;4949740;28;19915;-51
2022/12/25 07:31:49;;;;;;;;;;;21.60;40.50;;;;;;4950433;28;19925;-52
2022/12/25 07:34:15;;;;;;;;;;;21.60;40.60;;;;;;4950039;29;20359;-54
2022/12/25 07:36:41;;;;;;;;;;;21.60;40.70;;;;;;4949961;29;20402;-51
2022/12/25 07:39:08;;;;;;;;;;;21.60;40.50;;;;;;4945630;28;19923;-51
2022/12/25 07:41:33;;;;;;;;;;;21.70;40.50;;;;;;4948658;28;19914;-52
2022/12/25 07:43:59;;;;;;;;;;;21.70;40.60;;;;;;4948451;28;20350;-51
2022/12/25 07:46:25;;;;;;;;;;;21.70;40.40;;;;;;4954190;28;20325;-51
2022/12/25 07:48:51;;;;;;;;;;;21.70;40.40;;;;;;4949367;28;20278;-51
2022/12/25 07:51:16;;;;;;;;;;;21.80;40.20;;;;;;4963458;28;19918;-51
2022/12/25 07:53:41;;;;;;;;;;;21.80;40.10;;;;;;5009322;28;20362;-51
2022/12/25 07:56:09;;;;;;;;;;;21.80;40.30;;;;;;4951275;28;19972;-51
2022/12/25 07:58:35;;;;;;;;;;;21.80;40.30;;;;;;4952794;28;19965;-51
2022/12/25 08:01:19;;;;;;;;;;;21.70;40.40;;;;;;4949017;28;19982;-52
2022/12/25 08:03:49;;;;;;;;;;;21.60;40.40;;;;;;4948834;28;20704;-53
2022/12/25 08:06:14;;;;;;;;;;;21.60;40.50;;;;;;4948971;28;20023;-52
2022/12/25 08:08:40;;;;;;;;;;;21.50;40.90;;;;;;4946215;28;19961;-52
2022/12/25 08:11:07;;;;;;;;;;;21.40;41.00;;;;;;4948789;28;19925;-53
2022/12/25 08:13:32;;;;;;;;;;;21.30;41.00;;;;;;4950384;28;20398;-52
2022/12/25 08:16:01;;;;;;;;;;;21.20;41.20;;;;;;4951653;28;19930;-52
2022/12/25 08:18:27;;;;;;;;;;;21.20;41.30;;;;;;4952521;28;20440;-52
2022/12/25 08:20:53;;;;;;;;;;;21.30;41.30;;;;;;4952296;28;19949;-53
2022/12/25 08:23:18;;;;;;;;;;;21.50;41.10;;;;;;4948576;28;19922;-52
2022/12/25 08:25:43;;;;;;;;;;;21.60;41.60;;;;;;4949750;28;19922;-52
2022/12/25 08:28:09;;;;;;;;;;;21.70;40.70;;;;;;4951321;28;20363;-53
2022/12/25 08:30:36;;;;;;;;;;;21.70;40.50;;;;;;4953322;29;20406;-52
2022/12/25 08:33:02;;;;;;;;;;;21.70;40.60;;;;;;4955763;28;20294;-53
2022/12/25 08:35:27;;;;;;;;;;;21.70;40.70;;;;;;4953248;29;19922;-52
2022/12/25 08:37:53;;;;;;;;;;;21.80;40.70;;;;;;4952308;29;19968;-52
2022/12/25 08:40:18;;;;;;;;;;;21.90;40.70;;;;;;4951596;28;19937;-52
2022/12/25 08:42:43;;;;;;;;;;;21.80;40.90;;;;;;4959532;28;19915;-52
2022/12/25 08:45:09;;;;;;;;;;;21.70;40.90;;;;;;4952251;29;20439;-52
2022/12/25 08:47:35;;;;;;;;;;;21.70;41.70;;;;;;4952929;29;19952;-52
2022/12/25 08:50:00;;;;;;;;;;;21.70;41.10;;;;;;4959009;28;19972;-51
2022/12/25 08:52:26;;;;;;;;;;;21.80;40.90;;;;;;4973087;28;19914;-52
2022/12/25 08:54:52;;;;;;;;;;;21.80;40.80;;;;;;4952111;28;19919;-52
2022/12/25 08:57:17;;;;;;;;;;;21.90;40.60;;;;;;4952059;29;19933;-52
2022/12/25 08:59:43;;;;;;;;;;;21.80;40.60;;;;;;4952182;29;20008;-52
2022/12/25 09:02:09;;;;;;;;;;;21.70;40.80;;;;;;4952727;29;19961;-51
2022/12/25 09:04:34;;;;;;;;;;;21.60;41.20;;;;;;4936058;28;19911;-51
2022/12/25 09:07:01;;;;;;;;;;;21.30;41.50;;;;;;4955092;28;20306;-51
2022/12/25 09:09:27;;;;;;;;;;;21.30;41.80;;;;;;4952497;29;19911;-51
2022/12/25 09:11:52;;;;;;;;;;;21.20;42.00;;;;;;4952833;29;19925;-53
2022/12/25 09:14:18;;;;;;;;;;;21.30;41.80;;;;;;4951957;29;19910;-54
2022/12/25 09:16:43;;;;;;;;;;;21.30;41.70;;;;;;4950684;28;19914;-53
2022/12/25 09:19:09;;;;;;;;;;;21.40;41.60;;;;;;4951659;28;20001;-51
2022/12/25 09:21:35;;;;;;;;;;;21.50;41.20;;;;;;4951087;28;19919;-51
2022/12/25 09:24:01;;;;;;;;;;;21.60;41.10;;;;;;4974348;28;19921;-52
2022/12/25 09:26:27;;;;;;;;;;;21.70;41.00;;;;;;4966758;28;19949;-51
2022/12/25 09:28:52;;;;;;;;;;;21.70;40.90;;;;;;4949551;28;19958;-51
2022/12/25 09:31:18;;;;;;;;;;;21.80;40.90;;;;;;4933426;28;19911;-51
2022/12/25 09:33:43;;;;;;;;;;;21.80;41.00;;;;;;4940924;28;19960;-50
2022/12/25 09:36:09;;;;;;;;;;;21.80;40.90;;;;;;4951896;28;19914;-51
2022/12/25 09:38:34;;;;;;;;;;;21.80;40.80;;;;;;4952450;28;20409;-53
2022/12/25 09:41:01;;;;;;;;;;;21.80;40.70;;;;;;4951774;28;19918;-51
2022/12/25 09:43:27;;;;;;;;;;;21.90;40.80;;;;;;4951715;29;19926;-53
2022/12/25 09:45:53;;;;;;;;;;;21.80;40.80;;;;;;4951445;29;20291;-53
2022/12/25 09:48:18;;;;;;;;;;;21.80;41.10;;;;;;4952053;28;19921;-52
2022/12/25 09:50:43;;;;;;;;;;;21.80;41.10;;;;;;4949419;28;20391;-52
2022/12/25 09:53:17;;;;;;;;;;;21.80;41.00;;;;;;4962119;28;19914;-52
2022/12/25 09:55:55;;;;;;;;;;;21.90;40.90;;;;;;4953407;28;20402;-51
2022/12/25 09:58:20;;;;;;;;;;;21.90;41.00;;;;;;4952221;28;20429;-51
2022/12/25 10:00:48;;;;;;;;;;;21.90;40.90;;;;;;4952336;29;20048;-52
2022/12/25 10:03:25;;;;;;;;;;;21.90;40.80;;;;;;4952254;28;20402;-52
2022/12/25 10:05:57;;;;;;;;;;;21.80;41.10;;;;;;4950783;28;19919;-52
2022/12/25 10:08:29;;;;;;;;;;;21.70;41.20;;;;;;4951858;28;19915;-51
2022/12/25 10:10:57;;;;;;;;;;;21.60;41.20;;;;;;4951814;28;19910;-52
2022/12/25 10:13:31;;;;;;;;;;;21.60;41.30;;;;;;4934658;28;19922;-52
2022/12/25 10:16:15;;;;;;;;;;;21.70;41.30;;;;;;4947685;28;19984;-51
2022/12/25 10:18:46;;;;;;;;;;;21.70;41.30;;;;;;4951117;28;19914;-52
2022/12/25 10:21:13;;;;;;;;;;;21.70;41.30;;;;;;4950166;28;19964;-51
2022/12/25 10:23:38;;;;;;;;;;;21.70;41.30;;;;;;4996307;28;19922;-51
2022/12/25 10:26:10;;;;;;;;;;;21.80;41.20;;;;;;4951434;28;19910;-51
2022/12/25 10:28:43;;;;;;;;;;;21.90;41.00;;;;;;4940620;28;19911;-50
2022/12/25 10:31:19;;;;;;;;;;;21.90;40.80;;;;;;4951713;28;19929;-50
2022/12/25 10:33:45;;;;;;;;;;;21.90;41.00;;;;;;4951919;29;20433;-52
2022/12/25 10:36:12;;;;;;;;;;;21.80;41.00;;;;;;4951498;29;20005;-53
2022/12/25 10:38:38;;;;;;;;;;;21.80;41.30;;;;;;4951279;28;20012;-52
2022/12/25 10:41:12;;;;;;;;;;;21.80;41.20;;;;;;4950341;29;20409;-52
2022/12/25 10:43:42;;;;;;;;;;;21.90;41.10;;;;;;4950929;29;19915;-51
2022/12/25 10:46:08;;;;;;;;;;;21.90;41.10;;;;;;4951538;28;19910;-51
2022/12/25 10:48:33;;;;;;;;;;;22.00;41.10;;;;;;4951592;28;20363;-52
2022/12/25 10:50:59;;;;;;;;;;;21.90;41.10;;;;;;4946374;28;19946;-51
2022/12/25 10:53:25;;;;;;;;;;;21.90;41.20;;;;;;5052148;28;19928;-51
2022/12/25 10:55:57;;;;;;;;;;;21.90;41.20;;;;;;5051835;28;20377;-50
2022/12/25 10:58:23;;;;;;;;;;;21.90;41.10;;;;;;4950561;28;20325;-51
2022/12/25 11:00:52;;;;;;;;;;;22.00;41.20;;;;;;5012536;28;19968;-52
2022/12/25 11:03:22;;;;;;;;;;;21.90;41.10;;;;;;4949965;28;19915;-52
2022/12/25 11:05:49;;;;;;;;;;;22.00;41.10;;;;;;4950910;28;19919;-52
2022/12/25 11:08:17;;;;;;;;;;;22.00;41.10;;;;;;4951517;28;19957;-52
2022/12/25 11:10:42;;;;;;;;;;;22.10;41.00;;;;;;4941785;28;19918;-52
2022/12/25 11:13:27;;;;;;;;;;;22.10;40.80;;;;;;4948631;28;19919;-52
2022/12/25 11:16:04;;;;;;;;;;;22.10;40.90;;;;;;5017075;28;19946;-51
2022/12/25 11:18:46;;;;;;;;;;;22.10;40.80;;;;;;4951210;28;20405;-52
2022/12/25 11:21:25;;;;;;;;;;;22.10;41.00;;;;;;4954173;29;19918;-52
2022/12/25 11:23:58;;;;;;;;;;;22.10;41.00;;;;;;4954438;29;19933;-52
2022/12/25 11:26:23;;;;;;;;;;;22.20;41.00;;;;;;4954261;29;20460;-51
2022/12/25 11:28:49;;;;;;;;;;;22.10;41.00;;;;;;4954075;28;19919;-51
2022/12/25 11:31:18;;;;;;;;;;;22.10;40.90;;;;;;4954548;28;19911;-51
2022/12/25 11:33:58;;;;;;;;;;;21.90;41.10;;;;;;4936692;29;19914;-51
2022/12/25 11:36:27;;;;;;;;;;;21.90;41.30;;;;;;4953980;28;20013;-51
2022/12/25 11:38:52;;;;;;;;;;;21.80;41.40;;;;;;4954363;28;19925;-51
2022/12/25 11:41:19;;;;;;;;;;;21.80;41.50;;;;;;4954116;28;20278;-51
2022/12/25 11:43:49;;;;;;;;;;;22.00;41.40;;;;;;4953620;28;19933;-51
2022/12/25 11:46:19;;;;;;;;;;;21.90;41.40;;;;;;4954213;28;20465;-51
2022/12/25 11:48:56;;;;;;;;;;;22.00;41.40;;;;;;4954252;28;19915;-51
2022/12/25 11:51:29;;;;;;;;;;;21.80;41.50;;;;;;4954307;28;19920;-51
2022/12/25 11:53:56;;;;;;;;;;;21.80;41.50;;;;;;5055174;28;20381;-50
2022/12/25 11:56:26;;;;;;;;;;;21.90;41.50;;;;;;5054792;28;20026;-51
2022/12/25 11:58:53;;;;;;;;;;;21.90;41.50;;;;;;4969160;28;20017;-51
2022/12/25 12:01:37;;;;;;;;;;;21.80;41.50;;;;;;4954066;28;19911;-51
2022/12/25 12:04:05;;;;;;;;;;;21.70;41.80;;;;;;4953784;28;19915;-51
2022/12/25 12:07:06;;;;;;;;;;;21.70;41.90;;;;;;4936503;29;19922;-51
2022/12/25 12:09:51;;;;;;;;;;;21.50;42.00;;;;;;4992935;28;20404;-50
2022/12/25 12:12:35;;;;;;;;;;;21.60;42.20;;;;;;4956916;28;19914;-53
2022/12/25 12:15:19;;;;;;;;;;;21.60;42.20;;;;;;4953094;29;20378;-51
2022/12/25 12:17:44;;;;;;;;;;;21.80;41.90;;;;;;4953588;29;19916;-51
2022/12/25 12:20:11;;;;;;;;;;;21.70;41.80;;;;;;4953587;29;20279;-51
2022/12/25 12:22:36;;;;;;;;;;;21.70;41.70;;;;;;4953627;28;19941;-51
2022/12/25 12:25:05;;;;;;;;;;;21.60;41.90;;;;;;4953103;29;20005;-51
2022/12/25 12:27:35;;;;;;;;;;;21.70;41.80;;;;;;4953955;28;19915;-51
2022/12/25 12:30:00;;;;;;;;;;;21.70;41.90;;;;;;4953033;28;19918;-52
2022/12/25 12:32:28;;;;;;;;;;;21.70;41.80;;;;;;4953593;29;19918;-52
2022/12/25 12:34:54;;;;;;;;;;;22.00;42.20;;;;;;4953215;28;19918;-51
2022/12/25 12:37:25;;;;;;;;;;;22.00;41.40;;;;;;4953633;28;19973;-51
2022/12/25 12:39:52;;;;;;;;;;;22.00;41.30;;;;;;4952844;29;19918;-52
2022/12/25 12:42:18;;;;;;;;;;;22.00;41.40;;;;;;4953508;29;19965;-52
2022/12/25 12:44:44;;;;;;;;;;;22.00;41.40;;;;;;4952963;28;19918;-51
2022/12/25 12:47:29;;;;;;;;;;;22.10;41.20;;;;;;4953309;28;19915;-51
2022/12/25 12:49:55;;;;;;;;;;;22.10;41.20;;;;;;4953084;28;19911;-51
2022/12/25 12:52:21;;;;;;;;;;;22.20;41.30;;;;;;5010520;28;20365;-52
2022/12/25 12:54:59;;;;;;;;;;;22.20;41.10;;;;;;5053565;28;19913;-52
2022/12/25 12:57:31;;;;;;;;;;;22.20;41.10;;;;;;5054075;28;20035;-51
2022/12/25 12:59:56;;;;;;;;;;;22.20;41.00;;;;;;5042469;28;20376;-51
2022/12/25 13:02:34;;;;;;;;;;;22.20;41.30;;;;;;5019439;28;19919;-52
2022/12/25 13:04:59;;;;;;;;;;;22.20;41.30;;;;;;4952099;29;19926;-52
2022/12/25 13:07:34;;;;;;;;;;;22.20;41.20;;;;;;4952832;29;20429;-51
2022/12/25 13:10:21;;;;;;;;;;;22.30;41.00;;;;;;4951550;28;19922;-51
2022/12/25 13:12:50;;;;;;;;;;;22.30;41.10;;;;;;4958682;28;20277;-51
2022/12/25 13:15:15;;;;;;;;;;;22.40;41.10;;;;;;4951799;28;19930;-52
2022/12/25 13:17:42;;;;;;;;;;;22.40;41.00;;;;;;4955112;28;20262;-52
2022/12/25 13:20:11;;;;;;;;;;;22.40;41.10;;;;;;4932977;28;19919;-52
2022/12/25 13:22:36;;;;;;;;;;;22.20;41.00;;;;;;4951290;28;20390;-51
2022/12/25 13:25:07;;;;;;;;;;;22.00;41.50;;;;;;4951073;28;19926;-51
2022/12/25 13:27:33;;;;;;;;;;;21.90;41.70;;;;;;4953049;29;19958;-51
2022/12/25 13:29:58;;;;;;;;;;;21.80;42.00;;;;;;4951881;28;20383;-51
2022/12/25 13:32:25;;;;;;;;;;;21.70;42.10;;;;;;4952933;28;19910;-51
2022/12/25 13:34:51;;;;;;;;;;;21.70;42.20;;;;;;4952648;29;20337;-51
2022/12/25 13:37:17;;;;;;;;;;;21.60;42.30;;;;;;4935450;29;19918;-51
2022/12/25 13:39:50;;;;;;;;;;;21.70;42.10;;;;;;4949777;29;19941;-52
2022/12/25 13:42:16;;;;;;;;;;;21.80;41.90;;;;;;4950936;28;19990;-52
2022/12/25 13:44:49;;;;;;;;;;;21.90;42.00;;;;;;4951962;28;20294;-52
2022/12/25 13:47:14;;;;;;;;;;;22.00;41.70;;;;;;4935511;28;19923;-52
2022/12/25 13:49:40;;;;;;;;;;;22.00;41.60;;;;;;4952352;29;19914;-52
2022/12/25 13:52:12;;;;;;;;;;;22.00;41.60;;;;;;4996369;28;20430;-52
2022/12/25 13:54:38;;;;;;;;;;;22.10;41.70;;;;;;5052477;28;20363;-52
2022/12/25 13:57:04;;;;;;;;;;;22.10;41.60;;;;;;5052973;28;19909;-51
2022/12/25 13:59:30;;;;;;;;;;;22.10;41.90;;;;;;4974478;28;19922;-52
2022/12/25 14:01:56;;;;;;;;;;;22.10;41.60;;;;;;4952245;29;19910;-51
2022/12/25 14:04:22;;;;;;;;;;;22.00;41.80;;;;;;4950674;28;20366;-51
2022/12/25 14:06:48;;;;;;;;;;;21.70;42.00;;;;;;4951993;28;19918;-51
2022/12/25 14:09:13;;;;;;;;;;;21.60;42.40;;;;;;4951692;29;20271;-51
2022/12/25 14:11:39;;;;;;;;;;;21.50;42.70;;;;;;4952034;28;19960;-51
2022/12/25 14:14:25;;;;;;;;;;;21.50;42.60;;;;;;4951467;28;20648;-51
2022/12/25 14:16:53;;;;;;;;;;;21.50;42.60;;;;;;4951601;29;21486;-52
2022/12/25 14:19:32;;;;;;;;;;;21.60;42.50;;;;;;4951644;29;19911;-52
2022/12/25 14:22:16;;;;;;;;;;;21.70;42.30;;;;;;4951861;29;20441;-51
2022/12/25 14:24:41;;;;;;;;;;;21.90;42.00;;;;;;4951257;29;19998;-50
2022/12/25 14:27:15;;;;;;;;;;;22.00;41.60;;;;;;4951863;29;20005;-51
2022/12/25 14:29:42;;;;;;;;;;;22.10;41.70;;;;;;4951344;28;19914;-52
2022/12/25 14:32:10;;;;;;;;;;;22.10;41.60;;;;;;4951740;28;19922;-51
2022/12/25 14:34:35;;;;;;;;;;;22.20;41.50;;;;;;4951316;28;19930;-51
2022/12/25 14:37:01;;;;;;;;;;;22.20;42.00;;;;;;4950415;29;19918;-51
2022/12/25 14:39:29;;;;;;;;;;;22.30;41.50;;;;;;4949953;29;19914;-51
2022/12/25 14:41:55;;;;;;;;;;;22.30;41.40;;;;;;4950495;28;19914;-52
2022/12/25 14:44:31;;;;;;;;;;;22.30;41.20;;;;;;4951078;28;19976;-52
2022/12/25 14:47:11;;;;;;;;;;;22.30;41.20;;;;;;4933511;28;19914;-51
2022/12/25 14:49:37;;;;;;;;;;;22.40;41.30;;;;;;4961210;28;20279;-51
2022/12/25 14:52:09;;;;;;;;;;;22.30;41.20;;;;;;4950912;28;19918;-51
2022/12/25 14:54:35;;;;;;;;;;;22.20;41.40;;;;;;4948270;28;19941;-51
2022/12/25 14:57:00;;;;;;;;;;;22.00;41.60;;;;;;4950888;29;19918;-51
2022/12/25 14:59:26;;;;;;;;;;;22.00;41.90;;;;;;4949944;28;19914;-51
2022/12/25 15:01:55;;;;;;;;;;;22.00;41.80;;;;;;4951470;28;19946;-51
2022/12/25 15:04:22;;;;;;;;;;;21.90;41.90;;;;;;4950393;28;19981;-50
2022/12/25 15:06:55;;;;;;;;;;;22.20;41.80;;;;;;4970502;28;19923;-51
2022/12/25 15:09:20;;;;;;;;;;;22.20;41.70;;;;;;4970376;28;19918;-51
2022/12/25 15:11:49;;;;;;;;;;;22.20;41.70;;;;;;4970491;28;19917;-51
2022/12/25 15:14:15;;;;;;;;;;;22.20;41.80;;;;;;4954567;28;19956;-52
2022/12/25 15:16:41;;;;;;;;;;;22.20;41.80;;;;;;4968190;28;19965;-50
2022/12/25 15:19:07;;;;;;;;;;;22.20;41.80;;;;;;4933918;28;19914;-51
2022/12/25 15:21:32;;;;;;;;;;;22.10;41.90;;;;;;4951265;28;19910;-51
2022/12/25 15:23:58;;;;;;;;;;;22.00;42.20;;;;;;4949850;28;19918;-51
2022/12/25 15:26:24;;;;;;;;;;;21.90;42.30;;;;;;4950550;29;19971;-51
2022/12/25 15:28:49;;;;;;;;;;;21.80;42.60;;;;;;4949711;28;20276;-51
2022/12/25 15:31:22;;;;;;;;;;;21.70;42.70;;;;;;4931977;29;20337;-51
2022/12/25 15:33:47;;;;;;;;;;;21.70;42.70;;;;;;4944848;28;19946;-51
2022/12/25 15:36:13;;;;;;;;;;;21.70;42.70;;;;;;4950776;28;19980;-50
2022/12/25 15:38:38;;;;;;;;;;;21.80;42.50;;;;;;4951015;29;19934;-52
2022/12/25 15:41:08;;;;;;;;;;;21.90;42.40;;;;;;4950349;29;19910;-52
2022/12/25 15:43:33;;;;;;;;;;;22.10;42.20;;;;;;4950279;29;19921;-51
2022/12/25 15:45:59;;;;;;;;;;;22.20;41.90;;;;;;4950862;28;19911;-51
2022/12/25 15:48:24;;;;;;;;;;;22.20;41.90;;;;;;4950699;29;19911;-52
2022/12/25 15:50:49;;;;;;;;;;;22.20;41.80;;;;;;4949614;28;19914;-51
2022/12/25 15:53:15;;;;;;;;;;;22.30;41.80;;;;;;4956578;28;19918;-50
2022/12/25 15:55:40;;;;;;;;;;;22.40;41.80;;;;;;4950578;28;20021;-51
2022/12/25 15:58:08;;;;;;;;;;;22.40;41.70;;;;;;4950159;28;19965;-50
2022/12/25 16:00:34;;;;;;;;;;;22.30;41.60;;;;;;4935413;28;19980;-51
2022/12/25 16:03:00;;;;;;;;;;;22.20;41.80;;;;;;4953872;28;20375;-51